Portada
METAR-TAF:

METAR-TAF

Aeropuertos :

Aeropuerto Internacional Sir Seewoosagur Ramgoolam

Mauricio, Mauricio

latitud: 20-26S, longitud: 057-40E, altitud: 55 m

Observación

El informe se hizo hace 47 minutos, a las 20:00 UTC
Viento 5 kt del sureste
Temperatura 25°C
Humedad 83%
Presión 1016 hPa
Visibilidad 10 km o más
Nubes dispersas a una altura de 1700 ft

METAR: FIMP 132000Z 13005KT 9999 SCT017 25/22 Q1016

Hora: 00:47 (20:47 UTC)

Pronóstico

El informe se hizo hace 3 horas y 32 minutos, a las 17:15 UTC
Pronóstico válido del 13 a las 18 UTC al 15 a las 00 UTC
Viento 3 kt con dirección variable
Visibilidad 10 km o más
Nubes dispersas a una altura de 1700 ft
Temporalmente
del 13 a las 21 UTC al 14 a las 06 UTC
Viento 5 kt del noroeste
Evolucionando progresivamente
del 14 a las 06 UTC al 14 a las 08 UTC
Viento 12 kt del este-sureste

TAF: FIMP 131715Z 1318/1500 VRB03KT 9999 SCT017 TEMPO 1321/1406 32005KT BECMG 1406/1408 11012KT

Observaciones y pronósticos meteorológicos de más de 4000 aeropuertos (mensajes METAR y TAF).

Los puntos amarillos y rojos representan las estaciones disponibles.

Ponga el ratón en el punto deseado para ver el nombre de la estación.

Haga clic para ver las observaciones y los pronósticos meteorológicos.

Para cambiar el mapa : haga clic en los botones verdes con una cruz de color negro para hacer un zoom, en el botón verde con un guión para alejar o en las flechas verdes para mapas adyacentes.


METAR-TAF: